Time,TemperatureF,DewpointF,PressureIn,WindDirection,WindDirectionDegrees,WindSpeedMPH,WindSpeedGustMPH,Humidity,HourlyPrecipIn,Conditions,Clouds,dailyrainin,SoftwareType,DateUTC
2013-03-16 00:00:00,35.5,31.1,30.11,NE,42,4.0,7.0,84,0.00,,---,0.00,VWS V14.01,2013-03-16 07:00:00,
2013-03-16 00:04:00,35.1,30.5,30.11,NE,40,3.0,5.0,83,0.00,,---,0.00,VWS V14.01,2013-03-16 07:04:00,
2013-03-16 00:09:00,35.0,30.4,30.11,NE,38,0.0,5.0,83,0.00,,---,0.00,VWS V14.01,2013-03-16 07:09:00,
2013-03-16 00:14:00,34.4,29.8,30.11,NE,38,0.0,5.0,83,0.00,,---,0.00,VWS V14.01,2013-03-16 07:14:00,
2013-03-16 00:15:00,34.4,29.8,30.11,NE,39,0.0,5.0,83,0.00,,---,0.00,VWS V14.01,2013-03-16 07:15:00,
2013-03-16 00:19:00,34.5,30.5,30.11,NE,42,0.0,5.0,85,0.00,,---,0.00,VWS V14.01,2013-03-16 07:19:00,
2013-03-16 00:24:00,34.1,29.2,30.11,NE,42,0.0,5.0,82,0.00,,---,0.00,VWS V14.01,2013-03-16 07:24:00,
2013-03-16 00:29:00,33.5,29.2,30.11,NE,42,0.0,5.0,84,0.00,,---,0.00,VWS V14.01,2013-03-16 07:29:00,
2013-03-16 00:30:00,33.4,29.1,30.11,NE,42,0.0,5.0,84,0.00,,---,0.00,VWS V14.01,2013-03-16 07:30:00,
2013-03-16 00:34:00,33.2,29.2,30.10,NE,34,6.0,6.0,85,0.00,,---,0.00,VWS V14.01,2013-03-16 07:34:00,
2013-03-16 00:39:00,33.8,29.5,30.10,NNE,28,0.0,7.0,84,0.00,,---,0.00,VWS V14.01,2013-03-16 07:39:00,
2013-03-16 00:44:00,34.1,30.4,30.10,NNE,28,4.0,7.0,86,0.00,,---,0.00,VWS V14.01,2013-03-16 07:44:00,
2013-03-16 00:45:00,34.3,30.8,30.10,NNE,28,4.0,7.0,87,0.00,,---,0.00,VWS V14.01,2013-03-16 07:45:00,
2013-03-16 00:49:00,34.4,30.1,30.10,NNE,25,0.0,5.0,84,0.00,,---,0.00,VWS V14.01,2013-03-16 07:49:00,
2013-03-16 00:54:00,34.4,30.1,30.10,NNE,25,0.0,5.0,84,0.00,,---,0.00,VWS V14.01,2013-03-16 07:54:00,
2013-03-16 00:59:00,34.4,30.6,30.10,NNE,25,0.0,5.0,86,0.00,,---,0.00,VWS V14.01,2013-03-16 07:59:00,
2013-03-16 01:00:00,34.4,30.6,30.10,NNE,25,0.0,5.0,86,0.00,,---,0.00,VWS V14.01,2013-03-16 08:00:00,
2013-03-16 01:04:00,34.4,29.8,30.10,NNE,25,0.0,0.0,83,0.00,,---,0.00,VWS V14.01,2013-03-16 08:04:00,
2013-03-16 01:09:00,33.6,29.0,30.10,NNE,25,0.0,0.0,83,0.00,,---,0.00,VWS V14.01,2013-03-16 08:09:00,
2013-03-16 01:14:00,33.1,29.1,30.10,NNE,25,0.0,0.0,85,0.00,,---,0.00,VWS V14.01,2013-03-16 08:14:00,
2013-03-16 01:15:00,33.1,29.1,30.10,NNE,25,0.0,0.0,85,0.00,,---,0.00,VWS V14.01,2013-03-16 08:15:00,
2013-03-16 01:19:00,33.1,29.4,30.10,NNE,25,0.0,0.0,86,0.00,,---,0.00,VWS V14.01,2013-03-16 08:19:00,
2013-03-16 01:24:00,33.0,29.3,30.10,NNE,25,0.0,0.0,86,0.00,,---,0.00,VWS V14.01,2013-03-16 08:24:00,
2013-03-16 01:29:00,32.7,29.0,30.10,NNE,25,0.0,0.0,86,0.00,,---,0.00,VWS V14.01,2013-03-16 08:29:00,
2013-03-16 01:30:00,32.7,29.0,30.10,NNE,25,0.0,0.0,86,0.00,,---,0.00,VWS V14.01,2013-03-16 08:30:00,
2013-03-16 01:34:00,32.4,28.7,30.10,NNE,25,0.0,0.0,86,0.00,,---,0.00,VWS V14.01,2013-03-16 08:34:00,
2013-03-16 01:39:00,31.8,28.1,30.10,NNE,25,0.0,0.0,86,0.00,,---,0.00,VWS V14.01,2013-03-16 08:39:00,
2013-03-16 01:44:00,31.4,28.0,30.10,NNE,25,0.0,0.0,87,0.00,,---,0.00,VWS V14.01,2013-03-16 08:44:00,
2013-03-16 01:45:00,31.4,28.0,30.10,NNE,25,0.0,0.0,87,0.00,,---,0.00,VWS V14.01,2013-03-16 08:45:00,
2013-03-16 01:49:00,31.7,28.6,30.10,NNE,25,0.0,0.0,88,0.00,,---,0.00,VWS V14.01,2013-03-16 08:49:00,
2013-03-16 01:54:00,32.4,29.5,30.10,NNE,25,0.0,0.0,89,0.00,,---,0.00,VWS V14.01,2013-03-16 08:54:00,
2013-03-16 01:59:00,33.1,30.2,30.10,NNE,25,0.0,0.0,89,0.00,,---,0.00,VWS V14.01,2013-03-16 08:59:00,
2013-03-16 02:00:00,33.2,30.3,30.10,NNE,25,0.0,0.0,89,0.00,,---,0.00,VWS V14.01,2013-03-16 09:00:00,
2013-03-16 02:04:00,33.3,30.1,30.10,NNE,25,0.0,0.0,88,0.00,,---,0.00,VWS V14.01,2013-03-16 09:04:00,
2013-03-16 02:09:00,32.9,29.5,30.10,NNE,25,0.0,0.0,87,0.00,,---,0.00,VWS V14.01,2013-03-16 09:09:00,
2013-03-16 02:14:00,32.7,29.3,30.10,NNE,25,0.0,0.0,87,0.00,,---,0.00,VWS V14.01,2013-03-16 09:14:00,
2013-03-16 02:15:00,32.6,29.2,30.10,NNE,25,0.0,0.0,87,0.00,,---,0.00,VWS V14.01,2013-03-16 09:15:00,
2013-03-16 02:19:00,32.0,28.6,30.10,NNE,25,0.0,0.0,87,0.00,,---,0.00,VWS V14.01,2013-03-16 09:19:00,
2013-03-16 02:24:00,32.6,29.7,30.10,NNE,25,0.0,0.0,89,0.00,,---,0.00,VWS V14.01,2013-03-16 09:24:00,
2013-03-16 02:29:00,32.9,29.7,30.11,NNE,25,0.0,0.0,88,0.00,,---,0.00,VWS V14.01,2013-03-16 09:29:00,
2013-03-16 02:30:00,32.7,29.3,30.11,NNE,25,0.0,0.0,87,0.00,,---,0.00,VWS V14.01,2013-03-16 09:30:00,
2013-03-16 02:34:00,31.7,27.7,30.11,NNE,25,0.0,0.0,85,0.00,,---,0.00,VWS V14.01,2013-03-16 09:34:00,
2013-03-16 02:39:00,30.8,27.1,30.10,NNE,25,0.0,0.0,86,0.00,,---,0.00,VWS V14.01,2013-03-16 09:39:00,
2013-03-16 02:44:00,30.8,28.0,30.10,NNE,25,0.0,0.0,89,0.00,,---,0.00,VWS V14.01,2013-03-16 09:44:00,
2013-03-16 02:45:00,30.9,28.0,30.10,NNE,25,0.0,0.0,89,0.00,,---,0.00,VWS V14.01,2013-03-16 09:45:00,
2013-03-16 02:49:00,30.9,28.0,30.10,NNE,25,0.0,0.0,89,0.00,,---,0.00,VWS V14.01,2013-03-16 09:49:00,
2013-03-16 02:54:00,31.0,28.1,30.10,NNE,25,0.0,0.0,89,0.00,,---,0.00,VWS V14.01,2013-03-16 09:54:00,
2013-03-16 02:59:00,30.5,27.4,30.10,NNE,25,0.0,0.0,88,0.00,,---,0.00,VWS V14.01,2013-03-16 09:59:00,
2013-03-16 03:00:00,30.3,26.9,30.10,NNE,25,0.0,0.0,87,0.00,,---,0.00,VWS V14.01,2013-03-16 10:00:00,
2013-03-16 03:04:00,29.5,25.8,30.10,NNE,25,0.0,0.0,86,0.00,,---,0.00,VWS V14.01,2013-03-16 10:04:00,
2013-03-16 03:09:00,28.8,25.7,30.10,NNE,25,0.0,0.0,88,0.00,,---,0.00,VWS V14.01,2013-03-16 10:09:00,
2013-03-16 03:14:00,29.2,26.6,30.10,NNE,25,0.0,0.0,90,0.00,,---,0.00,VWS V14.01,2013-03-16 10:14:00,
2013-03-16 03:15:00,29.3,26.7,30.10,NNE,25,0.0,0.0,90,0.00,,---,0.00,VWS V14.01,2013-03-16 10:15:00,
2013-03-16 03:19:00,29.7,27.4,30.10,NNE,25,0.0,0.0,91,0.00,,---,0.00,VWS V14.01,2013-03-16 10:19:00,
2013-03-16 03:24:00,30.5,28.2,30.10,NNE,25,0.0,0.0,91,0.00,,---,0.00,VWS V14.01,2013-03-16 10:24:00,
2013-03-16 03:29:00,30.6,28.3,30.10,NNE,25,0.0,0.0,91,0.00,,---,0.00,VWS V14.01,2013-03-16 10:29:00,
2013-03-16 03:30:00,30.5,27.9,30.10,NNE,25,0.0,0.0,90,0.00,,---,0.00,VWS V14.01,2013-03-16 10:30:00,
2013-03-16 03:34:00,30.1,27.5,30.10,NNE,25,0.0,0.0,90,0.00,,---,0.00,VWS V14.01,2013-03-16 10:34:00,
2013-03-16 03:39:00,29.4,26.6,30.09,NNE,25,0.0,0.0,89,0.00,,---,0.00,VWS V14.01,2013-03-16 10:39:00,
2013-03-16 03:44:00,29.8,27.5,30.09,NNE,25,0.0,0.0,91,0.00,,---,0.00,VWS V14.01,2013-03-16 10:44:00,
2013-03-16 03:45:00,29.9,27.6,30.09,NNE,25,0.0,0.0,91,0.00,,---,0.00,VWS V14.01,2013-03-16 10:45:00,
2013-03-16 03:49:00,30.9,28.9,30.09,NNE,25,0.0,1.0,92,0.00,,---,0.00,VWS V14.01,2013-03-16 10:49:00,
2013-03-16 03:54:00,31.6,29.3,30.09,NNE,25,0.0,1.0,91,0.00,,---,0.00,VWS V14.01,2013-03-16 10:54:00,
2013-03-16 03:59:00,31.5,28.9,30.09,NNE,25,0.0,1.0,90,0.00,,---,0.00,VWS V14.01,2013-03-16 10:59:00,
2013-03-16 04:00:00,31.4,28.8,30.09,NNE,25,0.0,1.0,90,0.00,,---,0.00,VWS V14.01,2013-03-16 11:00:00,
2013-03-16 04:04:00,30.9,28.0,30.09,NNE,25,0.0,0.0,89,0.00,,---,0.00,VWS V14.01,2013-03-16 11:04:00,
2013-03-16 04:09:00,29.4,25.7,30.09,NNE,25,0.0,0.0,86,0.00,,---,0.00,VWS V14.01,2013-03-16 11:09:00,
2013-03-16 04:14:00,28.6,25.8,30.09,NNE,25,0.0,0.0,89,0.00,,---,0.00,VWS V14.01,2013-03-16 11:14:00,
2013-03-16 04:15:00,28.6,25.8,30.09,NNE,25,0.0,0.0,89,0.00,,---,0.00,VWS V14.01,2013-03-16 11:15:00,
2013-03-16 04:19:00,28.7,26.1,30.09,NNE,25,0.0,0.0,90,0.00,,---,0.00,VWS V14.01,2013-03-16 11:19:00,
2013-03-16 04:24:00,28.7,26.1,30.08,NNE,25,0.0,0.0,90,0.00,,---,0.00,VWS V14.01,2013-03-16 11:24:00,
2013-03-16 04:29:00,28.4,25.9,30.08,NNE,25,0.0,0.0,90,0.00,,---,0.00,VWS V14.01,2013-03-16 11:29:00,
2013-03-16 04:30:00,28.3,25.8,30.08,NNE,25,0.0,0.0,90,0.00,,---,0.00,VWS V14.01,2013-03-16 11:30:00,
2013-03-16 04:34:00,28.1,25.5,30.08,NNE,25,0.0,0.0,90,0.00,,---,0.00,VWS V14.01,2013-03-16 11:34:00,
2013-03-16 04:39:00,28.3,26.0,30.08,NNE,25,0.0,0.0,91,0.00,,---,0.00,VWS V14.01,2013-03-16 11:39:00,
2013-03-16 04:44:00,28.1,25.8,30.08,NNE,25,0.0,0.0,91,0.00,,---,0.00,VWS V14.01,2013-03-16 11:44:00,
2013-03-16 04:45:00,28.0,25.7,30.08,NNE,25,0.0,0.0,91,0.00,,---,0.00,VWS V14.01,2013-03-16 11:45:00,
2013-03-16 04:49:00,27.8,25.5,30.08,NNE,25,0.0,0.0,91,0.00,,---,0.00,VWS V14.01,2013-03-16 11:49:00,
2013-03-16 04:54:00,27.8,25.5,30.08,NNE,25,0.0,0.0,91,0.00,,---,0.00,VWS V14.01,2013-03-16 11:54:00,
2013-03-16 04:59:00,28.1,26.1,30.08,NNE,25,0.0,0.0,92,0.00,,---,0.00,VWS V14.01,2013-03-16 11:59:00,
2013-03-16 05:00:00,28.1,26.1,30.08,NNE,25,0.0,0.0,92,0.00,,---,0.00,VWS V14.01,2013-03-16 12:00:00,
2013-03-16 05:04:00,28.4,26.4,30.07,NNE,25,0.0,0.0,92,0.00,,---,0.00,VWS V14.01,2013-03-16 12:04:00,
2013-03-16 05:09:00,28.7,26.7,30.07,NNE,25,0.0,0.0,92,0.00,,---,0.00,VWS V14.01,2013-03-16 12:09:00,
2013-03-16 05:14:00,28.8,26.8,30.08,NNE,25,0.0,0.0,92,0.00,,---,0.00,VWS V14.01,2013-03-16 12:14:00,
2013-03-16 05:15:00,28.9,26.9,30.07,NNE,25,0.0,0.0,92,0.00,,---,0.00,VWS V14.01,2013-03-16 12:15:00,
2013-03-16 05:19:00,29.0,27.0,30.07,NNE,25,0.0,0.0,92,0.00,,---,0.00,VWS V14.01,2013-03-16 12:19:00,
2013-03-16 05:24:00,29.1,27.1,30.07,NNE,25,0.0,0.0,92,0.00,,---,0.00,VWS V14.01,2013-03-16 12:24:00,
2013-03-16 05:29:00,29.4,27.4,30.08,NNE,25,0.0,0.0,92,0.00,,---,0.00,VWS V14.01,2013-03-16 12:29:00,
2013-03-16 05:30:00,29.5,27.5,30.08,NNE,25,0.0,0.0,92,0.00,,---,0.00,VWS V14.01,2013-03-16 12:30:00,
2013-03-16 05:34:00,30.1,28.3,30.08,NNE,25,0.0,0.0,93,0.00,,---,0.00,VWS V14.01,2013-03-16 12:34:00,
2013-03-16 05:39:00,30.6,28.8,30.08,NNE,25,0.0,0.0,93,0.00,,---,0.00,VWS V14.01,2013-03-16 12:39:00,
2013-03-16 05:44:00,30.7,28.7,30.08,NNE,25,0.0,0.0,92,0.00,,---,0.00,VWS V14.01,2013-03-16 12:44:00,
2013-03-16 05:45:00,30.8,28.8,30.08,NNE,25,0.0,0.0,92,0.00,,---,0.00,VWS V14.01,2013-03-16 12:45:00,
2013-03-16 05:49:00,31.1,29.0,30.08,NNE,25,0.0,0.0,92,0.00,,---,0.00,VWS V14.01,2013-03-16 12:49:00,
2013-03-16 05:54:00,31.3,29.2,30.08,NNE,25,0.0,0.0,92,0.00,,---,0.00,VWS V14.01,2013-03-16 12:54:00,
2013-03-16 05:59:00,31.3,29.2,30.07,NNE,25,0.0,0.0,92,0.00,,---,0.00,VWS V14.01,2013-03-16 12:59:00,
2013-03-16 06:00:00,31.4,29.4,30.07,NNE,25,0.0,0.0,92,0.00,,---,0.00,VWS V14.01,2013-03-16 13:00:00,
2013-03-16 06:04:00,31.2,28.9,30.08,NNE,25,0.0,0.0,91,0.00,,---,0.00,VWS V14.01,2013-03-16 13:04:00,
2013-03-16 06:09:00,30.7,28.1,30.07,NNE,25,0.0,0.0,90,0.00,,---,0.00,VWS V14.01,2013-03-16 13:09:00,
2013-03-16 06:14:00,30.4,28.1,30.07,NNE,25,0.0,0.0,91,0.00,,---,0.00,VWS V14.01,2013-03-16 13:14:00,
2013-03-16 06:15:00,30.5,28.2,30.07,NNE,25,0.0,0.0,91,0.00,,---,0.00,VWS V14.01,2013-03-16 13:15:00,
2013-03-16 06:19:00,30.5,28.2,30.07,NNE,25,0.0,0.0,91,0.00,,---,0.00,VWS V14.01,2013-03-16 13:19:00,
2013-03-16 06:24:00,30.5,28.2,30.07,NNE,25,0.0,0.0,91,0.00,,---,0.00,VWS V14.01,2013-03-16 13:24:00,
2013-03-16 06:29:00,31.0,29.0,30.07,NNE,25,0.0,0.0,92,0.00,,---,0.00,VWS V14.01,2013-03-16 13:29:00,
2013-03-16 06:30:00,31.1,29.0,30.07,NNE,25,0.0,0.0,92,0.00,,---,0.00,VWS V14.01,2013-03-16 13:30:00,
2013-03-16 06:34:00,31.3,29.2,30.07,NNE,25,0.0,0.0,92,0.00,,---,0.00,VWS V14.01,2013-03-16 13:34:00,
2013-03-16 06:39:00,31.2,28.9,30.07,NNE,25,0.0,0.0,91,0.00,,---,0.00,VWS V14.01,2013-03-16 13:39:00,
2013-03-16 06:44:00,30.9,28.3,30.07,NNE,25,0.0,0.0,90,0.00,,---,0.00,VWS V14.01,2013-03-16 13:44:00,
2013-03-16 06:45:00,30.8,28.2,30.06,NNE,25,0.0,0.0,90,0.00,,---,0.00,VWS V14.01,2013-03-16 13:45:00,
2013-03-16 06:49:00,30.5,27.9,30.07,NNE,25,0.0,0.0,90,0.00,,---,0.00,VWS V14.01,2013-03-16 13:49:00,
2013-03-16 06:54:00,30.2,27.6,30.07,NNE,25,0.0,0.0,90,0.00,,---,0.00,VWS V14.01,2013-03-16 13:54:00,
2013-03-16 06:59:00,30.1,27.8,30.07,NNE,25,0.0,0.0,91,0.00,,---,0.00,VWS V14.01,2013-03-16 13:59:00,
2013-03-16 07:00:00,29.9,27.6,30.07,NNE,25,0.0,0.0,91,0.00,,---,0.00,VWS V14.01,2013-03-16 14:00:00,
2013-03-16 07:04:00,29.2,26.6,30.06,NNE,15,2.0,4.0,90,0.00,,---,0.00,VWS V14.01,2013-03-16 14:04:00,
2013-03-16 07:09:00,28.8,26.5,30.06,NNE,15,0.0,4.0,91,0.00,,---,0.00,VWS V14.01,2013-03-16 14:09:00,
2013-03-16 07:14:00,28.5,26.2,30.07,NNE,15,0.0,4.0,91,0.00,,---,0.00,VWS V14.01,2013-03-16 14:14:00,
2013-03-16 07:15:00,28.5,26.2,30.07,NNE,15,0.0,4.0,91,0.00,,---,0.00,VWS V14.01,2013-03-16 14:15:00,
2013-03-16 07:18:00,28.4,26.1,30.06,NNE,15,0.0,0.0,91,0.00,,---,0.00,VWS V14.01,2013-03-16 14:18:00,
2013-03-16 07:23:00,28.2,25.9,30.06,NNE,15,0.0,0.0,91,0.00,,---,0.00,VWS V14.01,2013-03-16 14:23:00,
2013-03-16 07:28:00,28.3,26.3,30.06,NNE,15,0.0,0.0,92,0.00,,---,0.00,VWS V14.01,2013-03-16 14:28:00,
2013-03-16 07:30:00,28.3,26.3,30.05,NNE,15,0.0,0.0,92,0.00,,---,0.00,VWS V14.01,2013-03-16 14:30:00,
2013-03-16 07:33:00,28.5,26.5,30.05,NNE,15,0.0,0.0,92,0.00,,---,0.00,VWS V14.01,2013-03-16 14:33:00,
2013-03-16 07:38:00,28.6,26.6,30.06,NNE,15,0.0,0.0,92,0.00,,---,0.00,VWS V14.01,2013-03-16 14:38:00,
2013-03-16 07:43:00,28.7,26.7,30.06,NNE,15,0.0,0.0,92,0.00,,---,0.00,VWS V14.01,2013-03-16 14:43:00,
2013-03-16 07:45:00,28.8,26.8,30.06,NNE,15,0.0,0.0,92,0.00,,---,0.00,VWS V14.01,2013-03-16 14:45:00,
2013-03-16 07:48:00,28.9,27.1,30.07,NNE,15,0.0,0.0,93,0.00,,---,0.00,VWS V14.01,2013-03-16 14:48:00,
2013-03-16 07:53:00,28.7,26.7,30.07,NNE,15,0.0,0.0,92,0.00,,---,0.00,VWS V14.01,2013-03-16 14:53:00,
2013-03-16 07:58:00,28.5,26.5,30.07,NNE,15,0.0,0.0,92,0.00,,---,0.00,VWS V14.01,2013-03-16 14:58:00,
2013-03-16 08:00:00,28.5,26.5,30.07,NNE,15,0.0,0.0,92,0.00,,---,0.00,VWS V14.01,2013-03-16 15:00:00,
2013-03-16 08:03:00,28.6,26.6,30.07,NNE,15,0.0,0.0,92,0.00,,---,0.00,VWS V14.01,2013-03-16 15:03:00,
2013-03-16 08:08:00,28.7,26.7,30.06,NNE,15,0.0,0.0,92,0.00,,---,0.00,VWS V14.01,2013-03-16 15:08:00,
2013-03-16 08:14:00,28.7,26.7,30.06,NNE,15,0.0,0.0,92,0.00,,---,0.00,VWS V14.01,2013-03-16 15:14:00,
2013-03-16 08:15:00,28.8,26.8,30.06,NNE,15,0.0,0.0,92,0.00,,---,0.00,VWS V14.01,2013-03-16 15:15:00,
2013-03-16 08:19:00,28.9,26.9,30.06,NNE,15,0.0,0.0,92,0.00,,---,0.00,VWS V14.01,2013-03-16 15:19:00,
2013-03-16 08:24:00,29.2,27.2,30.05,NNE,15,0.0,0.0,92,0.00,,---,0.00,VWS V14.01,2013-03-16 15:24:00,
2013-03-16 08:29:00,29.6,27.6,30.05,NNE,15,0.0,0.0,92,0.00,,---,0.00,VWS V14.01,2013-03-16 15:29:00,
2013-03-16 08:30:00,29.8,27.8,30.05,NNE,15,0.0,0.0,92,0.00,,---,0.00,VWS V14.01,2013-03-16 15:30:00,
2013-03-16 08:34:00,30.4,28.6,30.05,NNE,15,0.0,0.0,93,0.00,,---,0.00,VWS V14.01,2013-03-16 15:34:00,
2013-03-16 08:39:00,31.0,29.0,30.04,NNE,15,0.0,0.0,92,0.00,,---,0.00,VWS V14.01,2013-03-16 15:39:00,
2013-03-16 08:44:00,31.5,29.5,30.05,NNE,15,0.0,0.0,92,0.00,,---,0.00,VWS V14.01,2013-03-16 15:44:00,
2013-03-16 08:45:00,31.6,29.5,30.05,NNE,15,0.0,0.0,92,0.00,,---,0.00,VWS V14.01,2013-03-16 15:45:00,
2013-03-16 08:49:00,32.1,30.0,30.05,NNE,15,0.0,0.0,92,0.00,,---,0.00,VWS V14.01,2013-03-16 15:49:00,
2013-03-16 08:54:00,32.9,30.8,30.05,NNE,15,0.0,0.0,92,0.00,,---,0.00,VWS V14.01,2013-03-16 15:54:00,
2013-03-16 08:59:00,33.5,31.2,30.05,NNE,15,0.0,0.0,91,0.00,,---,0.00,VWS V14.01,2013-03-16 15:59:00,
2013-03-16 09:00:00,33.7,31.4,30.04,NNE,15,0.0,0.0,91,0.00,,---,0.00,VWS V14.01,2013-03-16 16:00:00,
2013-03-16 09:04:00,34.4,32.0,30.04,NNE,15,0.0,0.0,91,0.00,,---,0.00,VWS V14.01,2013-03-16 16:04:00,
2013-03-16 09:09:00,35.2,32.6,30.04,NNE,15,0.0,0.0,90,0.00,,---,0.00,VWS V14.01,2013-03-16 16:09:00,
2013-03-16 09:14:00,36.2,33.3,30.04,NNE,15,0.0,0.0,89,0.00,,---,0.00,VWS V14.01,2013-03-16 16:14:00,
2013-03-16 09:15:00,36.3,33.4,30.04,NNE,15,0.0,0.0,89,0.00,,---,0.00,VWS V14.01,2013-03-16 16:15:00,
2013-03-16 09:18:00,36.7,33.2,30.04,NNE,15,0.0,0.0,87,0.00,,---,0.00,VWS V14.01,2013-03-16 16:18:00,
2013-03-16 09:23:00,37.1,33.3,30.05,NNE,15,0.0,0.0,86,0.00,,---,0.00,VWS V14.01,2013-03-16 16:23:00,
2013-03-16 09:29:00,37.3,33.5,30.05,NNE,15,0.0,0.0,86,0.00,,---,0.00,VWS V14.01,2013-03-16 16:29:00,
2013-03-16 09:30:00,37.4,33.6,30.05,NNE,15,0.0,0.0,86,0.00,,---,0.00,VWS V14.01,2013-03-16 16:30:00,
2013-03-16 09:34:00,37.6,33.5,30.05,NNE,15,0.0,0.0,85,0.00,,---,0.00,VWS V14.01,2013-03-16 16:34:00,
2013-03-16 09:39:00,37.5,33.4,30.05,NNE,15,0.0,0.0,85,0.00,,---,0.00,VWS V14.01,2013-03-16 16:39:00,
2013-03-16 09:44:00,37.7,33.9,30.05,NNE,15,0.0,0.0,86,0.00,,---,0.00,VWS V14.01,2013-03-16 16:44:00,
2013-03-16 09:45:00,37.8,34.0,30.05,NNE,15,0.0,0.0,86,0.00,,---,0.00,VWS V14.01,2013-03-16 16:45:00,
2013-03-16 09:48:00,38.0,33.9,30.05,NNE,15,0.0,0.0,85,0.00,,---,0.00,VWS V14.01,2013-03-16 16:48:00,
2013-03-16 09:54:00,38.5,34.1,30.04,NNE,15,0.0,0.0,84,0.00,,---,0.00,VWS V14.01,2013-03-16 16:54:00,
2013-03-16 09:59:00,38.9,34.2,30.05,NNE,15,0.0,0.0,83,0.00,,---,0.00,VWS V14.01,2013-03-16 16:59:00,
2013-03-16 10:00:00,38.9,34.2,30.05,NNE,15,0.0,0.0,83,0.00,,---,0.00,VWS V14.01,2013-03-16 17:00:00,
2013-03-16 10:04:00,39.4,34.7,30.05,NNE,15,0.0,0.0,83,0.00,,---,0.00,VWS V14.01,2013-03-16 17:04:00,
2013-03-16 10:09:00,40.4,35.0,30.04,NNE,15,0.0,0.0,81,0.00,,---,0.00,VWS V14.01,2013-03-16 17:09:00,
2013-03-16 10:14:00,40.8,35.1,30.05,NNE,15,0.0,0.0,80,0.00,,---,0.00,VWS V14.01,2013-03-16 17:14:00,
2013-03-16 10:15:00,40.9,34.9,30.05,NNE,15,0.0,0.0,79,0.00,,---,0.00,VWS V14.01,2013-03-16 17:15:00,
2013-03-16 10:19:00,41.1,35.4,30.04,NNE,15,0.0,0.0,80,0.00,,---,0.00,VWS V14.01,2013-03-16 17:19:00,
2013-03-16 10:24:00,41.4,35.4,30.04,NNE,15,0.0,0.0,79,0.00,,---,0.00,VWS V14.01,2013-03-16 17:24:00,
2013-03-16 10:29:00,42.3,35.9,30.04,NNE,15,0.0,0.0,78,0.00,,---,0.00,VWS V14.01,2013-03-16 17:29:00,
2013-03-16 10:30:00,42.5,36.1,30.04,NNE,15,0.0,0.0,78,0.00,,---,0.00,VWS V14.01,2013-03-16 17:30:00,
2013-03-16 10:33:00,42.8,35.8,30.04,NNE,15,0.0,0.0,76,0.00,,---,0.00,VWS V14.01,2013-03-16 17:33:00,
2013-03-16 10:38:00,43.4,36.0,30.04,North,5,0.0,0.0,75,0.00,,---,0.00,VWS V14.01,2013-03-16 17:38:00,
2013-03-16 10:43:00,43.9,35.1,30.04,West,276,0.0,0.0,71,0.00,,---,0.00,VWS V14.01,2013-03-16 17:43:00,
2013-03-16 10:45:00,44.0,35.2,30.04,West,276,0.0,0.0,71,0.00,,---,0.00,VWS V14.01,2013-03-16 17:45:00,
2013-03-16 10:48:00,44.2,35.0,30.04,SW,215,3.0,3.0,70,0.00,,---,0.00,VWS V14.01,2013-03-16 17:48:00,
2013-03-16 10:53:00,44.7,34.8,30.04,SW,216,0.0,4.0,68,0.00,,---,0.00,VWS V14.01,2013-03-16 17:53:00,
2013-03-16 10:58:00,45.3,34.6,30.04,SW,226,1.0,4.0,66,0.00,,---,0.00,VWS V14.01,2013-03-16 17:58:00,
2013-03-16 11:00:00,45.5,34.4,30.04,SSW,211,5.0,6.0,65,0.00,,---,0.00,VWS V14.01,2013-03-16 18:00:00,
2013-03-16 11:03:00,45.7,34.6,30.04,SW,221,1.0,5.0,65,0.00,,---,0.00,VWS V14.01,2013-03-16 18:03:00,
2013-03-16 11:08:00,46.3,33.2,30.03,South,173,0.0,5.0,60,0.00,,---,0.00,VWS V14.01,2013-03-16 18:08:00,
2013-03-16 11:13:00,47.1,33.5,30.03,SSW,198,0.0,5.0,59,0.00,,---,0.00,VWS V14.01,2013-03-16 18:13:00,
2013-03-16 11:15:00,47.4,33.8,30.03,SSW,198,0.0,5.0,59,0.00,,---,0.00,VWS V14.01,2013-03-16 18:15:00,
2013-03-16 11:18:00,47.9,33.4,30.03,South,190,0.0,4.0,57,0.00,,---,0.00,VWS V14.01,2013-03-16 18:18:00,
2013-03-16 11:23:00,47.9,32.5,30.03,SW,219,0.0,10.0,55,0.00,,---,0.00,VWS V14.01,2013-03-16 18:23:00,
2013-03-16 11:28:00,48.2,33.3,30.02,WSW,250,3.0,13.0,56,0.00,,---,0.00,VWS V14.01,2013-03-16 18:28:00,
2013-03-16 11:30:00,48.1,33.2,30.02,NW,320,6.0,13.0,56,0.00,,---,0.00,VWS V14.01,2013-03-16 18:30:00,
2013-03-16 11:33:00,48.2,34.1,30.02,South,175,0.0,12.0,58,0.00,,---,0.00,VWS V14.01,2013-03-16 18:33:00,
2013-03-16 11:38:00,47.9,33.0,30.02,South,169,0.0,12.0,56,0.00,,---,0.00,VWS V14.01,2013-03-16 18:38:00,
2013-03-16 11:43:00,48.1,33.6,30.01,SW,235,0.0,12.0,57,0.00,,---,0.00,VWS V14.01,2013-03-16 18:43:00,
2013-03-16 11:45:00,48.2,32.3,30.01,SW,236,0.0,12.0,54,0.00,,---,0.00,VWS V14.01,2013-03-16 18:45:00,
2013-03-16 11:48:00,48.3,31.5,30.01,SSW,192,5.0,11.0,52,0.00,,---,0.00,VWS V14.01,2013-03-16 18:48:00,
2013-03-16 11:53:00,48.8,31.5,30.01,SSE,164,8.0,11.0,51,0.00,,---,0.00,VWS V14.01,2013-03-16 18:53:00,
2013-03-16 11:58:00,49.2,31.4,30.01,SSW,208,6.0,11.0,50,0.00,,---,0.00,VWS V14.01,2013-03-16 18:58:00,
2013-03-16 12:00:00,49.2,30.4,30.01,SW,222,13.0,15.0,48,0.00,,---,0.00,VWS V14.01,2013-03-16 19:00:00,
2013-03-16 12:03:00,48.7,31.4,30.01,SW,228,11.0,14.0,51,0.00,,---,0.00,VWS V14.01,2013-03-16 19:03:00,
2013-03-16 12:08:00,48.2,30.9,30.01,SW,219,2.0,14.0,51,0.00,,---,0.00,VWS V14.01,2013-03-16 19:08:00,
2013-03-16 12:13:00,48.4,32.1,30.01,SW,227,4.0,14.0,53,0.00,,---,0.00,VWS V14.01,2013-03-16 19:13:00,
2013-03-16 12:15:00,48.5,30.7,30.01,ESE,109,0.0,14.0,50,0.00,,---,0.00,VWS V14.01,2013-03-16 19:15:00,
2013-03-16 12:18:00,49.2,31.4,30.00,West,276,6.0,12.0,50,0.00,,---,0.00,VWS V14.01,2013-03-16 19:18:00,
2013-03-16 12:23:00,49.1,29.8,30.00,South,186,5.0,13.0,47,0.00,,---,0.00,VWS V14.01,2013-03-16 19:23:00,
2013-03-16 12:28:00,49.2,29.9,30.00,SW,230,1.0,13.0,47,0.00,,---,0.00,VWS V14.01,2013-03-16 19:28:00,
2013-03-16 12:30:00,49.2,29.9,30.00,WSW,250,3.0,13.0,47,0.00,,---,0.00,VWS V14.01,2013-03-16 19:30:00,
2013-03-16 12:33:00,49.0,30.7,30.00,WSW,248,3.0,5.0,49,0.00,,---,0.00,VWS V14.01,2013-03-16 19:33:00,
2013-03-16 12:38:00,49.4,30.5,29.99,West,264,3.0,14.0,48,0.00,,---,0.00,VWS V14.01,2013-03-16 19:38:00,
2013-03-16 12:43:00,49.1,30.3,29.99,WSW,240,0.0,14.0,48,0.00,,---,0.00,VWS V14.01,2013-03-16 19:43:00,
2013-03-16 12:45:00,49.2,30.4,29.99,SW,218,3.0,14.0,48,0.00,,---,0.00,VWS V14.01,2013-03-16 19:45:00,
2013-03-16 12:48:00,49.9,31.0,29.99,SW,223,4.0,7.0,48,0.00,,---,0.00,VWS V14.01,2013-03-16 19:48:00,
2013-03-16 12:53:00,51.0,31.0,29.99,SW,232,5.0,9.0,46,0.00,,---,0.00,VWS V14.01,2013-03-16 19:53:00,
2013-03-16 12:58:00,51.1,31.1,29.98,WSW,242,7.0,10.0,46,0.00,,---,0.00,VWS V14.01,2013-03-16 19:58:00,
2013-03-16 13:00:00,50.9,30.9,29.98,WSW,254,2.0,10.0,46,0.00,,---,0.00,VWS V14.01,2013-03-16 20:00:00,
2013-03-16 13:03:00,50.7,31.2,29.98,SSW,205,3.0,5.0,47,0.00,,---,0.00,VWS V14.01,2013-03-16 20:03:00,
2013-03-16 13:08:00,51.3,30.7,29.98,SSW,198,0.0,6.0,45,0.00,,---,0.00,VWS V14.01,2013-03-16 20:08:00,
2013-03-16 13:13:00,51.7,31.6,29.98,SSW,205,3.0,8.0,46,0.00,,---,0.00,VWS V14.01,2013-03-16 20:13:00,
2013-03-16 13:15:00,51.5,30.9,29.97,South,188,0.0,8.0,45,0.00,,---,0.00,VWS V14.01,2013-03-16 20:15:00,
2013-03-16 13:18:00,51.2,30.0,29.97,South,176,0.0,13.0,44,0.00,,---,0.00,VWS V14.01,2013-03-16 20:18:00,
2013-03-16 13:23:00,51.4,30.8,29.97,South,182,10.0,13.0,45,0.00,,---,0.00,VWS V14.01,2013-03-16 20:23:00,
2013-03-16 13:28:00,51.6,31.0,29.96,South,181,2.0,13.0,45,0.00,,---,0.00,VWS V14.01,2013-03-16 20:28:00,
2013-03-16 13:30:00,51.9,31.2,29.96,SW,217,6.0,13.0,45,0.00,,---,0.00,VWS V14.01,2013-03-16 20:30:00,
2013-03-16 13:33:00,51.9,31.8,29.96,West,259,8.0,8.0,46,0.00,,---,0.00,VWS V14.01,2013-03-16 20:33:00,
2013-03-16 13:38:00,52.2,32.6,29.96,South,171,0.0,15.0,47,0.00,,---,0.00,VWS V14.01,2013-03-16 20:38:00,
2013-03-16 13:43:00,52.3,32.2,29.96,SW,217,1.0,15.0,46,0.00,,---,0.00,VWS V14.01,2013-03-16 20:43:00,
2013-03-16 13:45:00,52.2,32.1,29.96,SW,223,10.0,15.0,46,0.00,,---,0.00,VWS V14.01,2013-03-16 20:45:00,
2013-03-16 13:48:00,51.0,30.4,29.96,SW,222,6.0,14.0,45,0.00,,---,0.00,VWS V14.01,2013-03-16 20:48:00,
2013-03-16 13:53:00,50.5,30.0,29.95,SW,236,17.0,17.0,45,0.00,,---,0.00,VWS V14.01,2013-03-16 20:53:00,
2013-03-16 13:58:00,50.4,29.9,29.95,WSW,240,14.0,21.0,45,0.00,,---,0.00,VWS V14.01,2013-03-16 20:58:00,
2013-03-16 14:00:00,50.2,29.7,29.95,SW,229,13.0,21.0,45,0.00,,---,0.00,VWS V14.01,2013-03-16 21:00:00,
2013-03-16 14:03:00,50.2,31.3,29.95,WSW,257,14.0,17.0,48,0.00,,---,0.00,VWS V14.01,2013-03-16 21:03:00,
2013-03-16 14:08:00,49.9,30.5,29.95,WSW,244,17.0,24.0,47,0.00,,---,0.00,VWS V14.01,2013-03-16 21:08:00,
2013-03-16 14:13:00,49.7,30.3,29.95,WSW,238,15.0,24.0,47,0.00,,---,0.00,VWS V14.01,2013-03-16 21:13:00,
2013-03-16 14:15:00,49.7,30.3,29.95,WSW,254,16.0,24.0,47,0.00,,---,0.00,VWS V14.01,2013-03-16 21:15:00,
2013-03-16 14:18:00,49.7,30.8,29.95,WSW,241,20.0,23.0,48,0.00,,---,0.00,VWS V14.01,2013-03-16 21:18:00,
2013-03-16 14:23:00,49.2,30.4,29.94,WSW,237,16.0,23.0,48,0.00,,---,0.00,VWS V14.01,2013-03-16 21:23:00,
2013-03-16 14:28:00,48.6,31.8,29.94,WSW,238,15.0,23.0,52,0.00,,---,0.00,VWS V14.01,2013-03-16 21:28:00,
2013-03-16 14:30:00,48.4,31.6,29.94,WSW,248,13.0,23.0,52,0.00,,---,0.00,VWS V14.01,2013-03-16 21:30:00,
2013-03-16 14:33:00,47.9,30.7,29.94,SW,229,18.0,22.0,51,0.00,,---,0.00,VWS V14.01,2013-03-16 21:33:00,
2013-03-16 14:38:00,47.3,31.0,29.95,SW,232,19.0,24.0,53,0.00,,---,0.00,VWS V14.01,2013-03-16 21:38:00,
2013-03-16 14:43:00,46.8,31.5,29.95,SW,232,10.0,24.0,55,0.00,,---,0.00,VWS V14.01,2013-03-16 21:43:00,
2013-03-16 14:45:00,46.8,31.5,29.95,SW,228,10.0,24.0,55,0.00,,---,0.00,VWS V14.01,2013-03-16 21:45:00,
2013-03-16 14:48:00,46.7,31.4,29.95,WSW,242,12.0,19.0,55,0.00,,---,0.00,VWS V14.01,2013-03-16 21:48:00,
2013-03-16 14:53:00,46.4,31.1,29.95,SW,227,16.0,24.0,55,0.00,,---,0.00,VWS V14.01,2013-03-16 21:53:00,
2013-03-16 14:58:00,46.0,31.2,29.95,SW,233,16.0,29.0,56,0.00,,---,0.00,VWS V14.01,2013-03-16 21:58:00,
2013-03-16 15:00:00,45.7,31.4,29.95,SW,232,16.0,29.0,57,0.00,,---,0.00,VWS V14.01,2013-03-16 22:00:00,
2013-03-16 15:03:00,45.0,32.0,29.96,SSW,213,21.0,24.0,60,0.00,,---,0.00,VWS V14.01,2013-03-16 22:03:00,
2013-03-16 15:08:00,43.7,32.3,29.95,WSW,237,13.0,26.0,64,0.00,,---,0.00,VWS V14.01,2013-03-16 22:08:00,
2013-03-16 15:13:00,43.2,33.0,29.96,SW,229,11.0,26.0,67,0.00,,---,0.00,VWS V14.01,2013-03-16 22:13:00,
2013-03-16 15:15:00,43.1,32.9,29.96,SW,233,18.0,26.0,67,0.00,,---,0.00,VWS V14.01,2013-03-16 22:15:00,
2013-03-16 15:18:00,43.1,32.9,29.96,SW,233,8.0,18.0,67,0.00,,---,0.00,VWS V14.01,2013-03-16 22:18:00,
2013-03-16 15:23:00,42.9,33.1,29.96,SW,235,13.0,22.0,68,0.00,,---,0.00,VWS V14.01,2013-03-16 22:23:00,
2013-03-16 15:28:00,42.9,32.3,29.96,SW,219,9.0,22.0,66,0.00,,---,0.00,VWS V14.01,2013-03-16 22:28:00,
2013-03-16 15:30:00,42.9,33.4,29.96,SW,215,2.0,22.0,69,0.00,,---,0.00,VWS V14.01,2013-03-16 22:30:00,
2013-03-16 15:33:00,42.9,33.8,29.96,WSW,242,8.0,13.0,70,0.00,,---,0.00,VWS V14.01,2013-03-16 22:33:00,
2013-03-16 15:38:00,42.8,34.1,29.95,SW,226,6.0,14.0,71,0.00,,---,0.00,VWS V14.01,2013-03-16 22:38:00,
2013-03-16 15:43:00,42.7,34.0,29.95,SW,236,7.0,14.0,71,0.00,,---,0.00,VWS V14.01,2013-03-16 22:43:00,
2013-03-16 15:45:00,42.8,33.7,29.95,WSW,238,6.0,14.0,70,0.00,,---,0.00,VWS V14.01,2013-03-16 22:45:00,
2013-03-16 15:48:00,43.0,33.9,29.94,WSW,248,3.0,8.0,70,0.00,,---,0.00,VWS V14.01,2013-03-16 22:48:00,
2013-03-16 15:53:00,43.5,32.9,29.94,SW,234,5.0,8.0,66,0.00,,---,0.00,VWS V14.01,2013-03-16 22:53:00,
2013-03-16 15:58:00,44.1,33.9,29.94,WSW,257,4.0,8.0,67,0.00,,---,0.00,VWS V14.01,2013-03-16 22:58:00,
2013-03-16 16:00:00,44.2,34.3,29.94,WNW,286,3.0,8.0,68,0.00,,---,0.00,VWS V14.01,2013-03-16 23:00:00,
2013-03-16 16:03:00,44.1,33.9,29.94,WSW,252,0.0,3.0,67,0.00,,---,0.00,VWS V14.01,2013-03-16 23:03:00,
2013-03-16 16:08:00,44.4,33.0,29.94,SW,236,10.0,13.0,64,0.00,,---,0.00,VWS V14.01,2013-03-16 23:08:00,
2013-03-16 16:13:00,45.0,32.8,29.94,WSW,240,8.0,15.0,62,0.00,,---,0.00,VWS V14.01,2013-03-16 23:13:00,
2013-03-16 16:15:00,45.2,33.8,29.94,SW,219,10.0,15.0,64,0.00,,---,0.00,VWS V14.01,2013-03-16 23:15:00,
2013-03-16 16:18:00,45.6,32.9,29.94,SW,234,6.0,13.0,61,0.00,,---,0.00,VWS V14.01,2013-03-16 23:18:00,
2013-03-16 16:23:00,45.7,32.6,29.94,WSW,241,6.0,14.0,60,0.00,,---,0.00,VWS V14.01,2013-03-16 23:23:00,
2013-03-16 16:28:00,46.1,32.2,29.94,SW,230,16.0,20.0,58,0.00,,---,0.00,VWS V14.01,2013-03-16 23:28:00,
2013-03-16 16:30:00,46.3,31.9,29.94,SW,232,6.0,20.0,57,0.00,,---,0.00,VWS V14.01,2013-03-16 23:30:00,
2013-03-16 16:33:00,46.7,32.3,29.93,SSW,210,0.0,13.0,57,0.00,,---,0.00,VWS V14.01,2013-03-16 23:33:00,
2013-03-16 16:38:00,46.8,32.8,29.93,SW,232,0.0,13.0,58,0.00,,---,0.00,VWS V14.01,2013-03-16 23:38:00,
2013-03-16 16:43:00,47.0,33.0,29.93,WSW,256,0.0,13.0,58,0.00,,---,0.00,VWS V14.01,2013-03-16 23:43:00,
2013-03-16 16:45:00,47.2,33.2,29.93,South,188,3.0,13.0,58,0.00,,---,0.00,VWS V14.01,2013-03-16 23:45:00,
2013-03-16 16:48:00,47.3,32.4,29.93,SSW,212,8.0,11.0,56,0.00,,---,0.00,VWS V14.01,2013-03-16 23:48:00,
2013-03-16 16:53:00,47.4,31.6,29.92,SW,219,8.0,12.0,54,0.00,,---,0.00,VWS V14.01,2013-03-16 23:53:00,
2013-03-16 16:58:00,47.7,32.3,29.92,SW,219,8.0,12.0,55,0.00,,---,0.00,VWS V14.01,2013-03-16 23:58:00,
2013-03-16 17:00:00,47.9,31.6,29.92,SW,230,9.0,12.0,53,0.00,,---,0.00,VWS V14.01,2013-03-17 00:00:00,
2013-03-16 17:03:00,48.1,31.3,29.92,SW,219,7.0,12.0,52,0.00,,---,0.00,VWS V14.01,2013-03-17 00:03:00,
2013-03-16 17:08:00,47.9,31.1,29.92,SW,221,3.0,12.0,52,0.00,,---,0.00,VWS V14.01,2013-03-17 00:08:00,
2013-03-16 17:13:00,48.0,31.7,29.92,SW,230,1.0,12.0,53,0.00,,---,0.00,VWS V14.01,2013-03-17 00:13:00,
2013-03-16 17:15:00,48.1,31.8,29.92,SW,218,2.0,12.0,53,0.00,,---,0.00,VWS V14.01,2013-03-17 00:15:00,
2013-03-16 17:18:00,47.9,30.7,29.92,SW,221,14.0,14.0,51,0.00,,---,0.00,VWS V14.01,2013-03-17 00:18:00,
2013-03-16 17:23:00,47.6,30.9,29.92,SSW,211,8.0,14.0,52,0.00,,---,0.00,VWS V14.01,2013-03-17 00:23:00,
2013-03-16 17:28:00,47.3,30.6,29.92,SW,226,8.0,15.0,52,0.00,,---,0.00,VWS V14.01,2013-03-17 00:28:00,
2013-03-16 17:30:00,47.1,30.9,29.92,SW,228,8.0,15.0,53,0.00,,---,0.00,VWS V14.01,2013-03-17 00:30:00,
2013-03-16 17:33:00,47.1,31.3,29.92,SW,228,5.0,14.0,54,0.00,,---,0.00,VWS V14.01,2013-03-17 00:33:00,
2013-03-16 17:38:00,47.1,31.8,29.92,WSW,242,9.0,14.0,55,0.00,,---,0.00,VWS V14.01,2013-03-17 00:38:00,
2013-03-16 17:43:00,47.1,30.9,29.92,SW,234,10.0,18.0,53,0.00,,---,0.00,VWS V14.01,2013-03-17 00:43:00,
2013-03-16 17:45:00,47.1,30.4,29.92,SW,236,10.0,18.0,52,0.00,,---,0.00,VWS V14.01,2013-03-17 00:45:00,
2013-03-16 17:48:00,47.0,30.8,29.92,SW,216,6.0,15.0,53,0.00,,---,0.00,VWS V14.01,2013-03-17 00:48:00,
2013-03-16 17:53:00,47.2,30.0,29.91,SW,225,13.0,19.0,51,0.00,,---,0.00,VWS V14.01,2013-03-17 00:53:00,
2013-03-16 17:58:00,47.3,30.1,29.91,WSW,238,16.0,19.0,51,0.00,,---,0.00,VWS V14.01,2013-03-17 00:58:00,
2013-03-16 18:00:00,47.3,29.1,29.91,SW,223,17.0,24.0,49,0.00,,---,0.00,VWS V14.01,2013-03-17 01:00:00,
2013-03-16 18:03:00,46.9,29.7,29.91,SW,236,14.0,19.0,51,0.00,,---,0.00,VWS V14.01,2013-03-17 01:03:00,
2013-03-16 18:08:00,46.7,29.5,29.91,SW,224,8.0,22.0,51,0.00,,---,0.00,VWS V14.01,2013-03-17 01:08:00,
2013-03-16 18:13:00,46.7,29.1,29.90,SW,224,19.0,24.0,50,0.00,,---,0.00,VWS V14.01,2013-03-17 01:13:00,
2013-03-16 18:15:00,46.6,29.5,29.91,SW,234,16.0,24.0,51,0.00,,---,0.00,VWS V14.01,2013-03-17 01:15:00,
2013-03-16 18:18:00,46.5,29.4,29.91,SW,222,15.0,21.0,51,0.00,,---,0.00,VWS V14.01,2013-03-17 01:18:00,
2013-03-16 18:23:00,46.3,29.2,29.90,SW,231,15.0,21.0,51,0.00,,---,0.00,VWS V14.01,2013-03-17 01:23:00,
2013-03-16 18:28:00,46.2,29.6,29.91,SW,214,15.0,21.0,52,0.00,,---,0.00,VWS V14.01,2013-03-17 01:28:00,
2013-03-16 18:30:00,46.2,29.6,29.91,SW,226,19.0,22.0,52,0.00,,---,0.00,VWS V14.01,2013-03-17 01:30:00,
2013-03-16 18:33:00,46.3,29.2,29.91,SW,217,20.0,21.0,51,0.00,,---,0.00,VWS V14.01,2013-03-17 01:33:00,
2013-03-16 18:38:00,46.3,29.2,29.90,SW,227,16.0,23.0,51,0.00,,---,0.00,VWS V14.01,2013-03-17 01:38:00,
2013-03-16 18:43:00,46.0,29.4,29.91,SW,226,20.0,25.0,52,0.00,,---,0.00,VWS V14.01,2013-03-17 01:43:00,
2013-03-16 18:45:00,45.9,29.3,29.91,SSW,200,15.0,25.0,52,0.00,,---,0.00,VWS V14.01,2013-03-17 01:45:00,
2013-03-16 18:48:00,45.5,28.9,29.91,SW,224,22.0,26.0,52,0.00,,---,0.00,VWS V14.01,2013-03-17 01:48:00,
2013-03-16 18:53:00,44.6,29.0,29.91,SW,227,24.0,30.0,54,0.00,,---,0.00,VWS V14.01,2013-03-17 01:53:00,
2013-03-16 18:58:00,44.1,29.4,29.91,SW,223,16.0,30.0,56,0.00,,---,0.00,VWS V14.01,2013-03-17 01:58:00,
2013-03-16 19:00:00,43.9,29.2,29.91,SW,221,24.0,30.0,56,0.00,,---,0.00,VWS V14.01,2013-03-17 02:00:00,
2013-03-16 19:03:00,43.7,29.0,29.90,SW,224,14.0,24.0,56,0.00,,---,0.00,VWS V14.01,2013-03-17 02:03:00,
2013-03-16 19:08:00,43.2,29.0,29.90,SW,215,13.0,24.0,57,0.00,,---,0.00,VWS V14.01,2013-03-17 02:08:00,
2013-03-16 19:13:00,42.9,28.7,29.91,SW,219,12.0,24.0,57,0.00,,---,0.00,VWS V14.01,2013-03-17 02:13:00,
2013-03-16 19:15:00,42.9,28.7,29.91,SW,233,19.0,24.0,57,0.00,,---,0.00,VWS V14.01,2013-03-17 02:15:00,
2013-03-16 19:18:00,42.7,29.0,29.91,WSW,237,13.0,23.0,58,0.00,,---,0.00,VWS V14.01,2013-03-17 02:18:00,
2013-03-16 19:23:00,42.2,28.9,29.91,SSW,212,5.0,23.0,59,0.00,,---,0.00,VWS V14.01,2013-03-17 02:23:00,
2013-03-16 19:28:00,41.9,29.0,29.91,SW,223,6.0,23.0,60,0.00,,---,0.00,VWS V14.01,2013-03-17 02:28:00,
2013-03-16 19:30:00,41.8,29.4,29.90,SW,217,5.0,23.0,61,0.00,,---,0.00,VWS V14.01,2013-03-17 02:30:00,
2013-03-16 19:33:00,41.8,29.4,29.91,SW,220,6.0,13.0,61,0.00,,---,0.00,VWS V14.01,2013-03-17 02:33:00,
2013-03-16 19:38:00,41.5,29.1,29.91,SW,224,7.0,15.0,61,0.00,,---,0.00,VWS V14.01,2013-03-17 02:38:00,
2013-03-16 19:43:00,41.7,29.3,29.91,SW,230,10.0,15.0,61,0.00,,---,0.00,VWS V14.01,2013-03-17 02:43:00,
2013-03-16 19:45:00,41.7,29.3,29.91,SW,226,10.0,15.0,61,0.00,,---,0.00,VWS V14.01,2013-03-17 02:45:00,
2013-03-16 19:48:00,41.4,29.4,29.91,SW,226,7.0,12.0,62,0.00,,---,0.00,VWS V14.01,2013-03-17 02:48:00,
2013-03-16 19:53:00,41.1,29.5,29.91,SW,214,3.0,12.0,63,0.00,,---,0.00,VWS V14.01,2013-03-17 02:53:00,
2013-03-16 19:58:00,41.2,29.2,29.91,SW,214,5.0,16.0,62,0.00,,---,0.00,VWS V14.01,2013-03-17 02:58:00,
2013-03-16 20:00:00,41.2,29.2,29.91,SW,217,6.0,16.0,62,0.00,,---,0.00,VWS V14.01,2013-03-17 03:00:00,
2013-03-16 20:03:00,41.0,29.4,29.91,SW,223,12.0,12.0,63,0.00,,---,0.00,VWS V14.01,2013-03-17 03:03:00,
2013-03-16 20:08:00,40.8,29.6,29.91,SW,225,8.0,16.0,64,0.00,,---,0.00,VWS V14.01,2013-03-17 03:08:00,
2013-03-16 20:13:00,40.6,29.8,29.91,SW,215,7.0,16.0,65,0.00,,---,0.00,VWS V14.01,2013-03-17 03:13:00,
2013-03-16 20:15:00,40.5,29.7,29.92,SSW,206,0.0,16.0,65,0.00,,---,0.00,VWS V14.01,2013-03-17 03:15:00,
2013-03-16 20:18:00,40.4,29.6,29.92,SW,235,7.0,10.0,65,0.00,,---,0.00,VWS V14.01,2013-03-17 03:18:00,
2013-03-16 20:23:00,40.5,30.0,29.92,South,191,8.0,10.0,66,0.00,,---,0.00,VWS V14.01,2013-03-17 03:23:00,
2013-03-16 20:28:00,40.3,30.2,29.91,SSW,200,13.0,17.0,67,0.00,,---,0.00,VWS V14.01,2013-03-17 03:28:00,
2013-03-16 20:30:00,40.4,30.3,29.92,SSW,200,2.0,17.0,67,0.00,,---,0.00,VWS V14.01,2013-03-17 03:30:00,
2013-03-16 20:33:00,40.2,30.5,29.92,SSW,206,1.0,9.0,68,0.00,,---,0.00,VWS V14.01,2013-03-17 03:33:00,
2013-03-16 20:38:00,40.2,30.5,29.93,SW,221,6.0,21.0,68,0.00,,---,0.00,VWS V14.01,2013-03-17 03:38:00,
2013-03-16 20:43:00,40.4,31.0,29.93,SW,220,10.0,24.0,69,0.00,,---,0.00,VWS V14.01,2013-03-17 03:43:00,
2013-03-16 20:45:00,40.4,31.0,29.93,SSW,196,18.0,24.0,69,0.00,,---,0.00,VWS V14.01,2013-03-17 03:45:00,
2013-03-16 20:48:00,40.1,31.5,29.94,SSW,210,11.0,18.0,71,0.00,,---,0.00,VWS V14.01,2013-03-17 03:48:00,
2013-03-16 20:53:00,39.5,31.9,29.94,SW,225,8.0,19.0,74,0.00,,---,0.00,VWS V14.01,2013-03-17 03:53:00,
2013-03-16 20:58:00,38.9,32.6,29.94,SW,214,19.0,26.0,78,0.00,,---,0.00,VWS V14.01,2013-03-17 03:58:00,
2013-03-16 21:00:00,38.6,32.3,29.94,SSW,196,19.0,26.0,78,0.00,,---,0.00,VWS V14.01,2013-03-17 04:00:00,
2013-03-16 21:05:00,37.7,32.7,29.96,WSW,244,23.0,25.0,82,0.00,,---,0.00,VWS V14.01,2013-03-17 04:05:00,
2013-03-16 21:10:00,35.2,30.9,29.97,SW,234,11.0,29.0,84,0.00,,---,0.00,VWS V14.01,2013-03-17 04:10:00,
2013-03-16 21:15:00,34.4,30.6,29.97,WSW,245,13.0,13.0,86,0.00,,---,0.00,VWS V14.01,2013-03-17 04:15:00,
2013-03-16 21:20:00,34.4,30.6,29.97,SW,232,10.0,21.0,86,0.00,,---,0.00,VWS V14.01,2013-03-17 04:20:00,
2013-03-16 21:25:00,34.4,30.4,29.98,SW,229,10.0,21.0,85,0.00,,---,0.00,VWS V14.01,2013-03-17 04:25:00,
2013-03-16 21:30:00,34.4,30.1,29.98,SW,222,10.0,11.0,84,0.00,,---,0.00,VWS V14.01,2013-03-17 04:30:00,
2013-03-16 21:35:00,34.5,29.9,29.98,SW,229,5.0,11.0,83,0.00,,---,0.00,VWS V14.01,2013-03-17 04:35:00,
2013-03-16 21:40:00,34.6,30.0,29.99,SW,229,7.0,11.0,83,0.00,,---,0.00,VWS V14.01,2013-03-17 04:40:00,
2013-03-16 21:45:00,34.4,29.2,29.99,SW,234,6.0,6.0,81,0.00,,---,0.00,VWS V14.01,2013-03-17 04:45:00,
2013-03-16 21:50:00,35.0,28.5,29.99,SW,232,5.0,14.0,77,0.00,,---,0.00,VWS V14.01,2013-03-17 04:50:00,
2013-03-16 21:55:00,34.7,28.5,30.00,SW,230,7.0,14.0,78,0.00,,---,0.00,VWS V14.01,2013-03-17 04:55:00,
2013-03-16 22:00:00,34.4,28.3,30.00,SW,227,5.0,14.0,78,0.00,,---,0.00,VWS V14.01,2013-03-17 05:00:00,
2013-03-16 22:05:00,34.3,28.5,30.00,SW,230,2.0,9.0,79,0.00,,---,0.00,VWS V14.01,2013-03-17 05:05:00,
2013-03-16 22:10:00,34.0,28.2,30.00,SW,236,4.0,9.0,79,0.00,,---,0.00,VWS V14.01,2013-03-17 05:10:00,
2013-03-16 22:15:00,33.8,28.0,30.00,SW,231,0.0,9.0,79,0.00,,---,0.00,VWS V14.01,2013-03-17 05:15:00,
2013-03-16 22:20:00,33.4,27.9,30.00,SW,231,0.0,3.0,80,0.00,,---,0.00,VWS V14.01,2013-03-17 05:20:00,
2013-03-16 22:25:00,33.1,27.6,30.00,SW,230,0.0,3.0,80,0.00,,---,0.00,VWS V14.01,2013-03-17 05:25:00,
2013-03-16 22:30:00,32.9,27.7,30.00,SW,230,0.0,3.0,81,0.00,,---,0.00,VWS V14.01,2013-03-17 05:30:00,
2013-03-16 22:35:00,33.0,27.8,30.00,SW,231,0.0,0.0,81,0.00,,---,0.00,VWS V14.01,2013-03-17 05:35:00,
2013-03-16 22:40:00,33.2,27.7,30.00,SW,231,0.0,0.0,80,0.00,,---,0.00,VWS V14.01,2013-03-17 05:40:00,
2013-03-16 22:45:00,33.2,27.1,30.00,SW,230,0.0,0.0,78,0.00,,---,0.00,VWS V14.01,2013-03-17 05:45:00,
2013-03-16 22:50:00,32.9,26.8,30.00,SSW,210,0.0,2.0,78,0.00,,---,0.00,VWS V14.01,2013-03-17 05:50:00,
2013-03-16 22:55:00,32.9,26.8,30.00,SSW,203,0.0,5.0,78,0.00,,---,0.00,VWS V14.01,2013-03-17 05:55:00,
2013-03-16 23:00:00,32.9,26.8,30.00,SSW,203,0.0,5.0,78,0.00,,---,0.00,VWS V14.01,2013-03-17 06:00:00,
2013-03-16 23:05:00,33.2,26.8,30.00,SSW,203,0.0,0.0,77,0.00,,---,0.00,VWS V14.01,2013-03-17 06:05:00,
2013-03-16 23:10:00,33.4,27.0,29.99,SW,214,0.0,5.0,77,0.00,,---,0.00,VWS V14.01,2013-03-17 06:10:00,
2013-03-16 23:15:00,33.6,26.9,29.99,South,173,2.0,7.0,76,0.00,,---,0.00,VWS V14.01,2013-03-17 06:15:00,
2013-03-16 23:20:00,33.8,27.0,30.00,SSW,212,0.0,5.0,76,0.00,,---,0.00,VWS V14.01,2013-03-17 06:20:00,
2013-03-16 23:25:00,33.7,27.0,30.00,SSW,211,0.0,5.0,76,0.00,,---,0.00,VWS V14.01,2013-03-17 06:25:00,
2013-03-16 23:30:00,33.7,27.0,30.00,SSW,210,0.0,5.0,76,0.00,,---,0.00,VWS V14.01,2013-03-17 06:30:00,
2013-03-16 23:35:00,33.8,27.0,30.00,SSW,210,0.0,0.0,76,0.00,,---,0.00,VWS V14.01,2013-03-17 06:35:00,
2013-03-16 23:40:00,33.9,27.1,30.00,SSW,205,0.0,5.0,76,0.00,,---,0.00,VWS V14.01,2013-03-17 06:40:00,
2013-03-16 23:45:00,33.7,27.3,30.00,SSW,192,0.0,5.0,77,0.00,,---,0.00,VWS V14.01,2013-03-17 06:45:00,
2013-03-16 23:50:00,33.5,27.1,30.00,South,189,3.0,7.0,77,0.00,,---,0.00,VWS V14.01,2013-03-17 06:50:00,
2013-03-16 23:55:00,33.4,27.0,30.00,SSW,196,5.0,7.0,77,0.00,,---,0.00,VWS V14.01,2013-03-17 06:55:00,